sensor_id;sensor_type;location;lat;lon;timestamp;pressure;altitude;pressure_sealevel;temperature;humidity
70930;BME280;58588;48.102;19.682;2023-07-13T00:00:37;99443.78;;;21.28;100.00
70930;BME280;58588;48.102;19.682;2023-07-13T00:03:39;99408.84;;;21.40;100.00
70930;BME280;58588;48.102;19.682;2023-07-13T00:06:41;99402.28;;;21.41;100.00
70930;BME280;58588;48.102;19.682;2023-07-13T00:09:46;99379.28;;;23.27;100.00
70930;BME280;58588;48.102;19.682;2023-07-13T00:12:49;99388.09;;;34.26;100.00
70930;BME280;58588;48.102;19.682;2023-07-13T00:15:52;99362.63;;;24.85;100.00
70930;BME280;58588;48.102;19.682;2023-07-13T00:18:56;99321.91;;;22.10;100.00
70930;BME280;58588;48.102;19.682;2023-07-13T00:22:00;99336.19;;;21.75;100.00
70930;BME280;58588;48.102;19.682;2023-07-13T00:25:05;99346.06;;;21.76;100.00
70930;BME280;58588;48.102;19.682;2023-07-13T00:28:07;99339.19;;;21.73;100.00
70930;BME280;58588;48.102;19.682;2023-07-13T00:31:09;99320.38;;;21.92;100.00
70930;BME280;58588;48.102;19.682;2023-07-13T00:34:12;99302.06;;;22.03;100.00
70930;BME280;58588;48.102;19.682;2023-07-13T00:37:14;99307.84;;;22.01;100.00
70930;BME280;58588;48.102;19.682;2023-07-13T00:40:20;99314.06;;;21.91;100.00
70930;BME280;58588;48.102;19.682;2023-07-13T00:43:23;99290.81;;;22.04;100.00
70930;BME280;58588;48.102;19.682;2023-07-13T00:46:27;99286.66;;;21.97;100.00
70930;BME280;58588;48.102;19.682;2023-07-13T00:49:32;99255.34;;;21.92;100.00
70930;BME280;58588;48.102;19.682;2023-07-13T00:52:37;99212.41;;;21.71;100.00
70930;BME280;58588;48.102;19.682;2023-07-13T00:55:41;99133.28;;;21.53;100.00
70930;BME280;58588;48.102;19.682;2023-07-13T00:58:44;99147.78;;;21.43;100.00
70930;BME280;58588;48.102;19.682;2023-07-13T01:01:46;99196.28;;;21.37;100.00
70930;BME280;58588;48.102;19.682;2023-07-13T01:04:48;99230.28;;;21.36;100.00
70930;BME280;58588;48.102;19.682;2023-07-13T01:07:51;99229.06;;;21.59;100.00
70930;BME280;58588;48.102;19.682;2023-07-13T01:10:56;99210.44;;;21.61;100.00
70930;BME280;58588;48.102;19.682;2023-07-13T01:13:59;99226.53;;;21.48;100.00
70930;BME280;58588;48.102;19.682;2023-07-13T01:17:02;99180.44;;;21.50;100.00
70930;BME280;58588;48.102;19.682;2023-07-13T01:20:05;99173.00;;;21.45;100.00
70930;BME280;58588;48.102;19.682;2023-07-13T01:23:11;99131.38;;;21.53;100.00
70930;BME280;58588;48.102;19.682;2023-07-13T01:26:13;99123.34;;;21.36;100.00
70930;BME280;58588;48.102;19.682;2023-07-13T01:29:15;99115.13;;;21.47;100.00
70930;BME280;58588;48.102;19.682;2023-07-13T01:32:20;99116.81;;;21.48;100.00
70930;BME280;58588;48.102;19.682;2023-07-13T01:35:24;99109.19;;;21.60;100.00
70930;BME280;58588;48.102;19.682;2023-07-13T01:38:30;99113.50;;;21.46;100.00
70930;BME280;58588;48.102;19.682;2023-07-13T01:41:32;99124.44;;;21.35;100.00
70930;BME280;58588;48.102;19.682;2023-07-13T01:44:34;99117.16;;;21.61;100.00
70930;BME280;58588;48.102;19.682;2023-07-13T01:47:36;99108.63;;;21.63;100.00
70930;BME280;58588;48.102;19.682;2023-07-13T01:50:38;99117.31;;;21.40;100.00
70930;BME280;58588;48.102;19.682;2023-07-13T01:53:42;99122.25;;;21.43;100.00
70930;BME280;58588;48.102;19.682;2023-07-13T01:56:44;99117.84;;;21.36;100.00
70930;BME280;58588;48.102;19.682;2023-07-13T01:59:46;99111.56;;;21.46;100.00
70930;BME280;58588;48.102;19.682;2023-07-13T02:02:48;99127.72;;;21.37;100.00
70930;BME280;58588;48.102;19.682;2023-07-13T02:05:51;99128.81;;;21.36;100.00
70930;BME280;58588;48.102;19.682;2023-07-13T02:08:55;99132.16;;;21.06;100.00
70930;BME280;58588;48.102;19.682;2023-07-13T02:11:57;99137.63;;;21.06;100.00
70930;BME280;58588;48.102;19.682;2023-07-13T02:14:59;99133.72;;;21.29;100.00
70930;BME280;58588;48.102;19.682;2023-07-13T02:18:01;99136.88;;;21.53;100.00
70930;BME280;58588;48.102;19.682;2023-07-13T02:21:04;99134.69;;;21.60;100.00
70930;BME280;58588;48.102;19.682;2023-07-13T02:24:07;99146.72;;;21.49;100.00
70930;BME280;58588;48.102;19.682;2023-07-13T02:27:09;99140.41;;;21.49;100.00
70930;BME280;58588;48.102;19.682;2023-07-13T02:30:11;99131.31;;;21.43;100.00
70930;BME280;58588;48.102;19.682;2023-07-13T02:33:14;99145.31;;;21.47;100.00
70930;BME280;58588;48.102;19.682;2023-07-13T02:36:16;99156.63;;;21.18;100.00
70930;BME280;58588;48.102;19.682;2023-07-13T02:39:20;99153.50;;;21.04;100.00
70930;BME280;58588;48.102;19.682;2023-07-13T02:42:22;99150.66;;;21.26;100.00
70930;BME280;58588;48.102;19.682;2023-07-13T02:45:24;99159.78;;;21.00;100.00
70930;BME280;58588;48.102;19.682;2023-07-13T02:48:27;99160.38;;;21.07;100.00
70930;BME280;58588;48.102;19.682;2023-07-13T02:51:30;99159.16;;;21.25;100.00
70930;BME280;58588;48.102;19.682;2023-07-13T02:54:35;99152.75;;;21.14;100.00
70930;BME280;58588;48.102;19.682;2023-07-13T02:57:38;99153.63;;;21.20;100.00
70930;BME280;58588;48.102;19.682;2023-07-13T03:00:40;99167.38;;;20.93;100.00
70930;BME280;58588;48.102;19.682;2023-07-13T03:03:42;99162.16;;;20.59;100.00
70930;BME280;58588;48.102;19.682;2023-07-13T03:06:45;99167.13;;;20.62;100.00
70930;BME280;58588;48.102;19.682;2023-07-13T03:09:48;99174.50;;;20.62;100.00
70930;BME280;58588;48.102;19.682;2023-07-13T03:12:51;99168.22;;;20.61;100.00
70930;BME280;58588;48.102;19.682;2023-07-13T03:15:53;99155.56;;;20.55;100.00
70930;BME280;58588;48.102;19.682;2023-07-13T03:18:55;99157.84;;;20.41;100.00
70930;BME280;58588;48.102;19.682;2023-07-13T03:21:57;99166.00;;;20.36;100.00
70930;BME280;58588;48.102;19.682;2023-07-13T03:25:00;99165.34;;;20.46;100.00
70930;BME280;58588;48.102;19.682;2023-07-13T03:28:02;99174.16;;;20.53;100.00
70930;BME280;58588;48.102;19.682;2023-07-13T03:31:07;99170.81;;;20.46;100.00
70930;BME280;58588;48.102;19.682;2023-07-13T03:34:09;99167.44;;;20.44;100.00
70930;BME280;58588;48.102;19.682;2023-07-13T03:37:12;99173.41;;;20.36;100.00
70930;BME280;58588;48.102;19.682;2023-07-13T03:40:15;99176.63;;;20.27;100.00
70930;BME280;58588;48.102;19.682;2023-07-13T03:43:17;99191.16;;;20.33;100.00
70930;BME280;58588;48.102;19.682;2023-07-13T03:46:20;99173.03;;;20.49;100.00
70930;BME280;58588;48.102;19.682;2023-07-13T03:49:22;99167.28;;;20.50;100.00
70930;BME280;58588;48.102;19.682;2023-07-13T03:52:25;99169.13;;;20.72;100.00
70930;BME280;58588;48.102;19.682;2023-07-13T03:55:28;99167.88;;;20.84;100.00
70930;BME280;58588;48.102;19.682;2023-07-13T03:58:32;99164.25;;;20.79;100.00
70930;BME280;58588;48.102;19.682;2023-07-13T04:01:34;99156.97;;;20.90;100.00
70930;BME280;58588;48.102;19.682;2023-07-13T04:04:36;99151.25;;;20.96;100.00
70930;BME280;58588;48.102;19.682;2023-07-13T04:07:41;99138.78;;;21.16;100.00
70930;BME280;58588;48.102;19.682;2023-07-13T04:10:44;99148.53;;;21.33;100.00
70930;BME280;58588;48.102;19.682;2023-07-13T04:13:47;99158.97;;;20.99;100.00
70930;BME280;58588;48.102;19.682;2023-07-13T04:16:49;99160.34;;;21.02;100.00
70930;BME280;58588;48.102;19.682;2023-07-13T04:19:51;99164.91;;;21.28;100.00
70930;BME280;58588;48.102;19.682;2023-07-13T04:22:53;99172.53;;;21.53;100.00
70930;BME280;58588;48.102;19.682;2023-07-13T04:25:57;99171.91;;;21.46;100.00
70930;BME280;58588;48.102;19.682;2023-07-13T04:28:59;99173.00;;;21.45;100.00
70930;BME280;58588;48.102;19.682;2023-07-13T04:32:01;99174.72;;;21.56;100.00
70930;BME280;58588;48.102;19.682;2023-07-13T04:35:03;99147.59;;;21.65;100.00
70930;BME280;58588;48.102;19.682;2023-07-13T04:38:07;99165.69;;;21.56;100.00
70930;BME280;58588;48.102;19.682;2023-07-13T04:41:13;99171.97;;;21.56;100.00
70930;BME280;58588;48.102;19.682;2023-07-13T04:44:16;99174.81;;;21.72;100.00
70930;BME280;58588;48.102;19.682;2023-07-13T04:47:18;99169.63;;;21.80;100.00
70930;BME280;58588;48.102;19.682;2023-07-13T04:50:20;99173.47;;;21.79;100.00
70930;BME280;58588;48.102;19.682;2023-07-13T04:53:23;99176.00;;;21.91;100.00
70930;BME280;58588;48.102;19.682;2023-07-13T04:56:27;99182.88;;;21.94;100.00
70930;BME280;58588;48.102;19.682;2023-07-13T04:59:29;99178.78;;;21.96;100.00
70930;BME280;58588;48.102;19.682;2023-07-13T05:02:31;99186.19;;;21.96;100.00
70930;BME280;58588;48.102;19.682;2023-07-13T05:05:33;99187.00;;;21.96;100.00
70930;BME280;58588;48.102;19.682;2023-07-13T05:08:35;99188.41;;;21.51;100.00
70930;BME280;58588;48.102;19.682;2023-07-13T05:11:39;99200.53;;;21.23;100.00
70930;BME280;58588;48.102;19.682;2023-07-13T05:14:41;99201.91;;;21.26;100.00
70930;BME280;58588;48.102;19.682;2023-07-13T05:17:43;99202.16;;;21.19;100.00
70930;BME280;58588;48.102;19.682;2023-07-13T05:20:45;99203.88;;;20.98;100.00
70930;BME280;58588;48.102;19.682;2023-07-13T05:23:47;99201.06;;;21.20;100.00
70930;BME280;58588;48.102;19.682;2023-07-13T05:26:51;99199.06;;;21.43;100.00
70930;BME280;58588;48.102;19.682;2023-07-13T05:29:53;99202.47;;;21.60;100.00
70930;BME280;58588;48.102;19.682;2023-07-13T05:32:55;99206.91;;;21.66;100.00
70930;BME280;58588;48.102;19.682;2023-07-13T05:35:57;99215.19;;;21.81;100.00
70930;BME280;58588;48.102;19.682;2023-07-13T05:39:01;99222.84;;;21.74;100.00
70930;BME280;58588;48.102;19.682;2023-07-13T05:42:06;99226.13;;;21.71;100.00
70930;BME280;58588;48.102;19.682;2023-07-13T05:45:09;99243.72;;;21.38;100.00
70930;BME280;58588;48.102;19.682;2023-07-13T05:48:11;99311.50;;;21.43;100.00
70930;BME280;58588;48.102;19.682;2023-07-13T05:51:13;99373.19;;;21.40;100.00
70930;BME280;58588;48.102;19.682;2023-07-13T05:54:15;99369.41;;;20.97;100.00
70930;BME280;58588;48.102;19.682;2023-07-13T05:57:19;99365.16;;;20.84;100.00
70930;BME280;58588;48.102;19.682;2023-07-13T06:00:21;99386.06;;;21.13;100.00
70930;BME280;58588;48.102;19.682;2023-07-13T06:03:23;99385.53;;;21.16;100.00
70930;BME280;58588;48.102;19.682;2023-07-13T06:06:25;99384.97;;;20.92;100.00
70930;BME280;58588;48.102;19.682;2023-07-13T06:09:27;99388.81;;;20.69;100.00
70930;BME280;58588;48.102;19.682;2023-07-13T06:12:30;99380.47;;;20.58;100.00
70930;BME280;58588;48.102;19.682;2023-07-13T06:15:32;99381.72;;;20.51;100.00
70930;BME280;58588;48.102;19.682;2023-07-13T06:18:35;99383.34;;;20.13;100.00
70930;BME280;58588;48.102;19.682;2023-07-13T06:21:37;99389.91;;;19.95;100.00
70930;BME280;58588;48.102;19.682;2023-07-13T06:24:39;99373.03;;;19.82;100.00
70930;BME280;58588;48.102;19.682;2023-07-13T06:27:43;99372.03;;;20.04;100.00
70930;BME280;58588;48.102;19.682;2023-07-13T06:30:45;99383.25;;;20.25;100.00
70930;BME280;58588;48.102;19.682;2023-07-13T06:33:47;99380.97;;;20.17;100.00
70930;BME280;58588;48.102;19.682;2023-07-13T06:36:49;99374.56;;;20.11;100.00
70930;BME280;58588;48.102;19.682;2023-07-13T06:39:51;99373.13;;;20.25;100.00
70930;BME280;58588;48.102;19.682;2023-07-13T06:42:54;99364.22;;;19.96;100.00
70930;BME280;58588;48.102;19.682;2023-07-13T06:45:56;99366.94;;;20.13;100.00
70930;BME280;58588;48.102;19.682;2023-07-13T06:48:58;99360.06;;;20.11;100.00
70930;BME280;58588;48.102;19.682;2023-07-13T06:52:00;99347.50;;;20.15;100.00
70930;BME280;58588;48.102;19.682;2023-07-13T06:55:02;99341.41;;;20.08;100.00
70930;BME280;58588;48.102;19.682;2023-07-13T06:58:06;99334.69;;;20.15;100.00
70930;BME280;58588;48.102;19.682;2023-07-13T07:01:08;99322.00;;;20.09;100.00
70930;BME280;58588;48.102;19.682;2023-07-13T07:04:10;99323.31;;;20.07;100.00
70930;BME280;58588;48.102;19.682;2023-07-13T07:07:12;99313.94;;;20.02;100.00
70930;BME280;58588;48.102;19.682;2023-07-13T07:10:14;99309.53;;;20.18;100.00
70930;BME280;58588;48.102;19.682;2023-07-13T07:13:18;99300.22;;;20.19;100.00
70930;BME280;58588;48.102;19.682;2023-07-13T07:16:20;99294.50;;;20.21;100.00
70930;BME280;58588;48.102;19.682;2023-07-13T07:19:22;99269.63;;;20.22;100.00
70930;BME280;58588;48.102;19.682;2023-07-13T07:22:24;99251.66;;;20.31;100.00
70930;BME280;58588;48.102;19.682;2023-07-13T07:25:28;99218.38;;;20.40;100.00
70930;BME280;58588;48.102;19.682;2023-07-13T07:28:33;99155.56;;;20.33;100.00
70930;BME280;58588;48.102;19.682;2023-07-13T07:31:35;99051.13;;;20.19;100.00
70930;BME280;58588;48.102;19.682;2023-07-13T07:34:38;98866.25;;;20.01;100.00
70930;BME280;58588;48.102;19.682;2023-07-13T07:37:40;98827.91;;;19.96;100.00
70930;BME280;58588;48.102;19.682;2023-07-13T07:40:42;98824.50;;;20.16;100.00
70930;BME280;58588;48.102;19.682;2023-07-13T07:43:45;98807.28;;;20.26;100.00
70930;BME280;58588;48.102;19.682;2023-07-13T07:46:47;98969.03;;;20.51;100.00
70930;BME280;58588;48.102;19.682;2023-07-13T07:49:50;98998.19;;;20.73;100.00
70930;BME280;58588;48.102;19.682;2023-07-13T07:52:52;98999.44;;;20.97;100.00
70930;BME280;58588;48.102;19.682;2023-07-13T07:55:54;98978.59;;;21.54;100.00
70930;BME280;58588;48.102;19.682;2023-07-13T07:58:57;98985.03;;;22.15;100.00
70930;BME280;58588;48.102;19.682;2023-07-13T08:01:59;99034.72;;;22.60;100.00
70930;BME280;58588;48.102;19.682;2023-07-13T08:05:03;99061.63;;;22.78;100.00
70930;BME280;58588;48.102;19.682;2023-07-13T08:08:05;99113.59;;;23.00;100.00
70930;BME280;58588;48.102;19.682;2023-07-13T08:11:09;99160.31;;;22.80;100.00
70930;BME280;58588;48.102;19.682;2023-07-13T08:14:13;99149.88;;;23.07;100.00
70930;BME280;58588;48.102;19.682;2023-07-13T08:17:16;99166.66;;;23.01;100.00
70930;BME280;58588;48.102;19.682;2023-07-13T08:20:18;99180.66;;;22.84;100.00
70930;BME280;58588;48.102;19.682;2023-07-13T08:23:20;99190.22;;;22.46;100.00
70930;BME280;58588;48.102;19.682;2023-07-13T08:26:30;99216.97;;;22.96;100.00
70930;BME280;58588;48.102;19.682;2023-07-13T08:29:38;99220.75;;;22.49;100.00
70930;BME280;58588;48.102;19.682;2023-07-13T08:32:40;99212.53;;;22.75;100.00
70930;BME280;58588;48.102;19.682;2023-07-13T08:35:47;99233.13;;;22.62;100.00
70930;BME280;58588;48.102;19.682;2023-07-13T08:38:49;99240.53;;;22.56;100.00
70930;BME280;58588;48.102;19.682;2023-07-13T08:41:55;99218.38;;;23.14;100.00
70930;BME280;58588;48.102;19.682;2023-07-13T08:45:07;99223.03;;;23.69;100.00
70930;BME280;58588;48.102;19.682;2023-07-13T08:48:19;99230.63;;;24.08;100.00
70930;BME280;58588;48.102;19.682;2023-07-13T08:51:37;99233.03;;;24.30;100.00
70930;BME280;58588;48.102;19.682;2023-07-13T08:54:45;99222.53;;;24.42;100.00
70930;BME280;58588;48.102;19.682;2023-07-13T08:57:54;99229.19;;;24.75;100.00
70930;BME280;58588;48.102;19.682;2023-07-13T09:01:08;99225.38;;;24.71;100.00
70930;BME280;58588;48.102;19.682;2023-07-13T09:04:16;99224.63;;;25.39;100.00
70930;BME280;58588;48.102;19.682;2023-07-13T09:07:29;99224.56;;;25.44;100.00
70930;BME280;58588;48.102;19.682;2023-07-13T09:10:40;99221.38;;;25.61;100.00
70930;BME280;58588;48.102;19.682;2023-07-13T09:13:48;99206.41;;;25.67;100.00
70930;BME280;58588;48.102;19.682;2023-07-13T09:16:55;99213.38;;;25.88;100.00
70930;BME280;58588;48.102;19.682;2023-07-13T09:19:59;99210.50;;;25.99;100.00
70930;BME280;58588;48.102;19.682;2023-07-13T09:23:07;99210.78;;;26.45;100.00
70930;BME280;58588;48.102;19.682;2023-07-13T09:26:16;99210.63;;;26.93;100.00
70930;BME280;58588;48.102;19.682;2023-07-13T09:29:27;99204.94;;;26.47;100.00
70930;BME280;58588;48.102;19.682;2023-07-13T09:32:31;99200.56;;;27.16;100.00
70930;BME280;58588;48.102;19.682;2023-07-13T09:35:34;99193.00;;;27.54;100.00
70930;BME280;58588;48.102;19.682;2023-07-13T09:38:37;99186.38;;;27.69;100.00
70930;BME280;58588;48.102;19.682;2023-07-13T09:41:48;99173.63;;;28.23;100.00
70930;BME280;58588;48.102;19.682;2023-07-13T09:44:54;99180.50;;;29.65;100.00
70930;BME280;58588;48.102;19.682;2023-07-13T09:48:05;99172.06;;;29.79;100.00
70930;BME280;58588;48.102;19.682;2023-07-13T09:51:13;99182.75;;;29.94;100.00
70930;BME280;58588;48.102;19.682;2023-07-13T09:54:20;99174.50;;;29.49;100.00
70930;BME280;58588;48.102;19.682;2023-07-13T09:57:23;99178.91;;;29.19;100.00
70930;BME280;58588;48.102;19.682;2023-07-13T10:00:28;99170.66;;;28.69;100.00
70930;BME280;58588;48.102;19.682;2023-07-13T10:03:34;99180.25;;;29.22;100.00
70930;BME280;58588;48.102;19.682;2023-07-13T10:06:39;99187.88;;;28.94;100.00
70930;BME280;58588;48.102;19.682;2023-07-13T10:09:43;99182.34;;;28.80;100.00
70930;BME280;58588;48.102;19.682;2023-07-13T10:12:46;99174.59;;;28.68;100.00
70930;BME280;58588;48.102;19.682;2023-07-13T10:15:48;99179.47;;;28.85;100.00
70930;BME280;58588;48.102;19.682;2023-07-13T10:18:55;99183.38;;;29.06;100.00
70930;BME280;58588;48.102;19.682;2023-07-13T10:21:59;99178.91;;;29.73;100.00
70930;BME280;58588;48.102;19.682;2023-07-13T10:25:02;99179.69;;;29.42;100.00
70930;BME280;58588;48.102;19.682;2023-07-13T10:28:09;99179.97;;;29.94;100.00
70930;BME280;58588;48.102;19.682;2023-07-13T10:31:14;99177.84;;;29.29;100.00
70930;BME280;58588;48.102;19.682;2023-07-13T10:34:19;99171.31;;;30.53;100.00
70930;BME280;58588;48.102;19.682;2023-07-13T10:37:23;99169.13;;;29.75;100.00
70930;BME280;58588;48.102;19.682;2023-07-13T10:40:30;99164.78;;;30.00;100.00
70930;BME280;58588;48.102;19.682;2023-07-13T10:43:38;99170.53;;;29.64;100.00
70930;BME280;58588;48.102;19.682;2023-07-13T10:46:42;99171.38;;;29.73;100.00
70930;BME280;58588;48.102;19.682;2023-07-13T10:49:48;99166.81;;;30.17;100.00
70930;BME280;58588;48.102;19.682;2023-07-13T10:52:55;99173.09;;;29.52;100.00
70930;BME280;58588;48.102;19.682;2023-07-13T10:56:03;99161.75;;;30.19;100.00
70930;BME280;58588;48.102;19.682;2023-07-13T10:59:12;99174.94;;;30.05;100.00
70930;BME280;58588;48.102;19.682;2023-07-13T11:02:24;99161.50;;;30.73;100.00
70930;BME280;58588;48.102;19.682;2023-07-13T11:05:32;99154.25;;;31.06;100.00
70930;BME280;58588;48.102;19.682;2023-07-13T11:08:36;99164.09;;;30.43;100.00
70930;BME280;58588;48.102;19.682;2023-07-13T11:11:39;99154.91;;;31.21;96.30
70930;BME280;58588;48.102;19.682;2023-07-13T11:15:01;99159.56;;;30.07;98.15
70930;BME280;58588;48.102;19.682;2023-07-13T11:18:20;99155.25;;;30.50;100.00
70930;BME280;58588;48.102;19.682;2023-07-13T11:21:26;99155.31;;;30.10;100.00
70930;BME280;58588;48.102;19.682;2023-07-13T11:24:52;99147.34;;;30.17;100.00
70930;BME280;58588;48.102;19.682;2023-07-13T11:28:06;99150.06;;;29.60;100.00
70930;BME280;58588;48.102;19.682;2023-07-13T11:31:15;99154.13;;;31.03;100.00
70930;BME280;58588;48.102;19.682;2023-07-13T11:34:23;99162.47;;;30.85;92.57
70930;BME280;58588;48.102;19.682;2023-07-13T11:37:29;99158.78;;;31.46;92.22
70930;BME280;58588;48.102;19.682;2023-07-13T11:40:32;99156.88;;;32.14;86.88
70930;BME280;58588;48.102;19.682;2023-07-13T11:43:34;99157.94;;;32.01;89.88
70930;BME280;58588;48.102;19.682;2023-07-13T11:46:36;99152.47;;;31.75;84.72
70930;BME280;58588;48.102;19.682;2023-07-13T11:49:42;99140.16;;;31.29;86.72
70930;BME280;58588;48.102;19.682;2023-07-13T11:52:46;99135.94;;;32.29;89.32
70930;BME280;58588;48.102;19.682;2023-07-13T11:55:49;99137.44;;;31.58;88.27
70930;BME280;58588;48.102;19.682;2023-07-13T11:58:55;99139.81;;;31.39;89.82
70930;BME280;58588;48.102;19.682;2023-07-13T12:01:58;99135.03;;;31.78;84.63
70930;BME280;58588;48.102;19.682;2023-07-13T12:05:02;99137.75;;;32.24;86.86
70930;BME280;58588;48.102;19.682;2023-07-13T12:08:10;99153.28;;;32.64;87.36
70930;BME280;58588;48.102;19.682;2023-07-13T12:11:16;99155.53;;;33.24;82.09
70930;BME280;58588;48.102;19.682;2023-07-13T12:14:19;99159.38;;;32.07;80.99
70930;BME280;58588;48.102;19.682;2023-07-13T12:17:25;99159.81;;;32.89;84.96
70930;BME280;58588;48.102;19.682;2023-07-13T12:20:34;99150.19;;;34.14;79.96
70930;BME280;58588;48.102;19.682;2023-07-13T12:23:38;99145.50;;;33.23;78.22
70930;BME280;58588;48.102;19.682;2023-07-13T12:26:41;99151.81;;;31.69;78.26
70930;BME280;58588;48.102;19.682;2023-07-13T12:29:50;99150.66;;;32.08;83.57
70930;BME280;58588;48.102;19.682;2023-07-13T12:32:59;99142.44;;;31.35;81.97
70930;BME280;58588;48.102;19.682;2023-07-13T12:36:03;99137.72;;;32.33;78.58
70930;BME280;58588;48.102;19.682;2023-07-13T12:39:14;99154.09;;;30.42;81.75
70930;BME280;58588;48.102;19.682;2023-07-13T12:42:20;99140.66;;;30.18;82.88
70930;BME280;58588;48.102;19.682;2023-07-13T12:45:26;99134.78;;;30.46;79.49
70930;BME280;58588;48.102;19.682;2023-07-13T12:48:29;99127.53;;;31.23;83.31
70930;BME280;58588;48.102;19.682;2023-07-13T12:51:31;99137.97;;;32.19;79.17
70930;BME280;58588;48.102;19.682;2023-07-13T12:54:39;99132.34;;;32.28;75.93
70930;BME280;58588;48.102;19.682;2023-07-13T12:57:45;99127.59;;;31.99;76.99
70930;BME280;58588;48.102;19.682;2023-07-13T13:00:50;99116.88;;;31.25;73.73
70930;BME280;58588;48.102;19.682;2023-07-13T13:03:54;99111.28;;;31.71;75.27
70930;BME280;58588;48.102;19.682;2023-07-13T13:07:05;99103.03;;;32.13;70.43
70930;BME280;58588;48.102;19.682;2023-07-13T13:10:13;99128.63;;;31.48;72.53
70930;BME280;58588;48.102;19.682;2023-07-13T13:13:15;99127.81;;;31.47;76.72
70930;BME280;58588;48.102;19.682;2023-07-13T13:16:21;99129.59;;;31.90;75.44
70930;BME280;58588;48.102;19.682;2023-07-13T13:19:25;99129.53;;;31.31;75.14
70930;BME280;58588;48.102;19.682;2023-07-13T13:22:27;99130.31;;;32.37;75.47
70930;BME280;58588;48.102;19.682;2023-07-13T13:25:31;99126.06;;;31.72;78.04
70930;BME280;58588;48.102;19.682;2023-07-13T13:28:33;99131.81;;;32.56;73.22
70930;BME280;58588;48.102;19.682;2023-07-13T13:31:35;99118.44;;;33.03;68.93
70930;BME280;58588;48.102;19.682;2023-07-13T13:34:37;99112.88;;;33.73;71.02
70930;BME280;58588;48.102;19.682;2023-07-13T13:37:39;99112.28;;;33.55;66.80
70930;BME280;58588;48.102;19.682;2023-07-13T13:40:44;99108.31;;;32.57;64.78
70930;BME280;58588;48.102;19.682;2023-07-13T13:43:46;99097.69;;;32.92;66.88
70930;BME280;58588;48.102;19.682;2023-07-13T13:46:51;99098.53;;;33.05;65.81
70930;BME280;58588;48.102;19.682;2023-07-13T13:49:54;99094.81;;;33.58;67.13
70930;BME280;58588;48.102;19.682;2023-07-13T13:52:56;99095.19;;;32.57;65.16
70930;BME280;58588;48.102;19.682;2023-07-13T13:55:59;99103.38;;;31.91;65.28
70930;BME280;58588;48.102;19.682;2023-07-13T13:59:02;99100.94;;;30.78;70.65
70930;BME280;58588;48.102;19.682;2023-07-13T14:02:16;99110.63;;;31.83;71.12
70930;BME280;58588;48.102;19.682;2023-07-13T14:05:23;99120.56;;;31.93;67.62
70930;BME280;58588;48.102;19.682;2023-07-13T14:08:26;99125.94;;;30.44;72.12
70930;BME280;58588;48.102;19.682;2023-07-13T14:11:30;99115.47;;;30.58;70.60
70930;BME280;58588;48.102;19.682;2023-07-13T14:14:33;99114.94;;;31.25;71.28
70930;BME280;58588;48.102;19.682;2023-07-13T14:17:35;99117.88;;;32.26;72.23
70930;BME280;58588;48.102;19.682;2023-07-13T14:20:37;99115.41;;;32.33;68.53
70930;BME280;58588;48.102;19.682;2023-07-13T14:23:44;99120.84;;;32.50;68.95
70930;BME280;58588;48.102;19.682;2023-07-13T14:26:48;99132.34;;;32.28;64.18
70930;BME280;58588;48.102;19.682;2023-07-13T14:29:50;99117.78;;;32.43;63.96
70930;BME280;58588;48.102;19.682;2023-07-13T14:32:52;99124.63;;;33.42;61.07
70930;BME280;58588;48.102;19.682;2023-07-13T14:35:54;99119.06;;;33.78;60.12
70930;BME280;58588;48.102;19.682;2023-07-13T14:38:57;99125.75;;;32.54;61.44
70930;BME280;58588;48.102;19.682;2023-07-13T14:42:01;99126.00;;;31.51;67.37
70930;BME280;58588;48.102;19.682;2023-07-13T14:45:04;99137.53;;;31.15;66.38
70930;BME280;58588;48.102;19.682;2023-07-13T14:48:13;99135.06;;;31.39;71.32
70930;BME280;58588;48.102;19.682;2023-07-13T14:51:17;99156.53;;;31.39;68.10
70930;BME280;58588;48.102;19.682;2023-07-13T14:54:19;99156.75;;;31.63;70.09
70930;BME280;58588;48.102;19.682;2023-07-13T14:57:23;99155.16;;;31.54;70.41
70930;BME280;58588;48.102;19.682;2023-07-13T15:00:25;99157.22;;;31.27;71.28
70930;BME280;58588;48.102;19.682;2023-07-13T15:03:27;99168.22;;;30.80;69.55
70930;BME280;58588;48.102;19.682;2023-07-13T15:06:30;99165.25;;;30.94;71.48
70930;BME280;58588;48.102;19.682;2023-07-13T15:09:33;99163.63;;;30.93;69.71
70930;BME280;58588;48.102;19.682;2023-07-13T15:12:36;99160.41;;;30.17;68.60
70930;BME280;58588;48.102;19.682;2023-07-13T15:15:40;99155.47;;;30.05;68.66
70930;BME280;58588;48.102;19.682;2023-07-13T15:18:44;99156.13;;;30.02;70.80
70930;BME280;58588;48.102;19.682;2023-07-13T15:21:46;99160.00;;;30.49;72.20
70930;BME280;58588;48.102;19.682;2023-07-13T15:24:48;99147.38;;;31.12;67.38
70930;BME280;58588;48.102;19.682;2023-07-13T15:27:52;99158.38;;;31.73;66.57
70930;BME280;58588;48.102;19.682;2023-07-13T15:30:55;99174.56;;;31.15;66.44
70930;BME280;58588;48.102;19.682;2023-07-13T15:33:57;99179.81;;;30.48;67.58
70930;BME280;58588;48.102;19.682;2023-07-13T15:37:00;99182.06;;;30.37;71.09
70930;BME280;58588;48.102;19.682;2023-07-13T15:40:02;99186.00;;;29.88;70.54
70930;BME280;58588;48.102;19.682;2023-07-13T15:43:10;99202.63;;;29.25;71.13
70930;BME280;58588;48.102;19.682;2023-07-13T15:46:13;99194.78;;;28.83;70.62
70930;BME280;58588;48.102;19.682;2023-07-13T15:49:15;99199.94;;;28.39;74.32
70930;BME280;58588;48.102;19.682;2023-07-13T15:52:18;99194.28;;;27.89;71.51